createdAt,value
2023-01-03T00:02:38.895Z,3.43
2023-01-03T00:05:26.340Z,4.23
2023-01-03T00:08:15.299Z,3.37
2023-01-03T00:11:02.656Z,3.20
2023-01-03T00:13:50.018Z,3.20
2023-01-03T00:16:37.748Z,3.37
2023-01-03T00:19:26.223Z,3.20
2023-01-03T00:22:14.417Z,3.13
2023-01-03T00:25:01.853Z,3.70
2023-01-03T00:27:49.285Z,3.73
2023-01-03T00:30:36.740Z,4.13
2023-01-03T00:33:24.105Z,3.80
2023-01-03T00:36:11.454Z,2.90
2023-01-03T00:38:58.871Z,3.37
2023-01-03T00:41:46.262Z,3.40
2023-01-03T00:44:33.645Z,3.03
2023-01-03T00:47:21.009Z,3.10
2023-01-03T00:50:08.401Z,3.07
2023-01-03T00:52:56.461Z,3.40
2023-01-03T00:55:43.801Z,2.83
2023-01-03T00:58:31.981Z,2.70
2023-01-03T01:01:20.873Z,2.53
2023-01-03T01:04:13.543Z,2.37
2023-01-03T01:07:02.173Z,2.53
2023-01-03T01:09:51.249Z,2.37
2023-01-03T01:12:38.637Z,2.70
2023-01-03T01:15:25.991Z,2.30
2023-01-03T01:18:13.383Z,2.30
2023-01-03T01:21:00.783Z,2.30
2023-01-03T01:23:48.404Z,2.20
2023-01-03T01:26:35.754Z,2.30
2023-01-03T01:29:23.086Z,2.70
2023-01-03T01:32:10.500Z,2.33
2023-01-03T01:34:57.854Z,3.07
2023-01-03T01:37:45.245Z,2.20
2023-01-03T01:40:32.700Z,2.13
2023-01-03T01:43:43.333Z,2.13
2023-01-03T01:46:33.185Z,2.30
2023-01-03T01:49:23.664Z,1.87
2023-01-03T01:52:11.245Z,1.60
2023-01-03T01:54:59.203Z,2.40
2023-01-03T01:57:46.924Z,1.90
2023-01-03T02:00:34.807Z,1.90
2023-01-03T02:03:22.361Z,2.13
2023-01-03T02:06:10.802Z,2.17
2023-01-03T02:08:58.186Z,1.50
2023-01-03T02:12:18.547Z,2.13
2023-01-03T02:15:15.026Z,2.40
2023-01-03T02:18:02.399Z,1.63
2023-01-03T02:21:06.411Z,1.73
2023-01-03T02:24:11.828Z,1.87
2023-01-03T02:26:59.258Z,1.73
2023-01-03T02:30:12.861Z,1.73
2023-01-03T02:33:19.255Z,1.90
2023-01-03T02:36:15.024Z,2.10
2023-01-03T02:39:07.405Z,1.70
2023-01-03T02:42:17.461Z,2.10
2023-01-03T02:45:17.032Z,1.90
2023-01-03T02:48:05.767Z,1.83
2023-01-03T02:50:55.555Z,1.63
2023-01-03T02:53:46.733Z,1.90
2023-01-03T02:56:48.177Z,1.73
2023-01-03T03:00:01.589Z,2.40
2023-01-03T03:02:52.138Z,2.23
2023-01-03T03:05:53.494Z,1.77
2023-01-03T03:08:44.026Z,1.83
2023-01-03T03:11:52.790Z,2.20
2023-01-03T03:14:43.513Z,1.97
2023-01-03T03:17:31.310Z,2.23
2023-01-03T03:20:37.716Z,2.23
2023-01-03T03:23:46.330Z,2.40
2023-01-03T03:26:38.699Z,2.20
2023-01-03T03:29:26.867Z,2.23
2023-01-03T03:32:14.358Z,2.40
2023-01-03T03:35:03.887Z,1.93
2023-01-03T03:37:53.369Z,2.10
2023-01-03T03:41:04.843Z,2.10
2023-01-03T03:44:28.349Z,2.20
2023-01-03T03:47:22.535Z,2.63
2023-01-03T03:50:30.168Z,2.40
2023-01-03T03:53:18.951Z,2.87
2023-01-03T03:56:09.040Z,2.67
2023-01-03T03:58:58.534Z,2.27
2023-01-03T04:01:46.579Z,2.97
2023-01-03T04:04:36.667Z,2.50
2023-01-03T04:07:24.368Z,2.10
2023-01-03T04:10:12.583Z,2.60
2023-01-03T04:12:59.963Z,2.73
2023-01-03T04:15:47.291Z,2.57
2023-01-03T04:18:35.057Z,2.90
2023-01-03T04:21:22.397Z,2.27
2023-01-03T04:24:09.814Z,2.63
2023-01-03T04:26:57.174Z,2.30
2023-01-03T04:29:44.570Z,2.67
2023-01-03T04:32:31.986Z,2.17
2023-01-03T04:35:19.403Z,2.63
2023-01-03T04:38:07.211Z,2.40
2023-01-03T04:40:54.556Z,2.60
2023-01-03T04:44:00.876Z,2.70
2023-01-03T04:46:52.808Z,2.77
2023-01-03T04:49:40.661Z,2.40
2023-01-03T04:52:29.228Z,2.47
2023-01-03T04:55:16.928Z,2.47
2023-01-03T04:58:04.266Z,2.27
2023-01-03T05:00:51.835Z,2.67
2023-01-03T05:03:39.329Z,2.20
2023-01-03T05:06:27.178Z,2.40
2023-01-03T05:09:14.576Z,2.50
2023-01-03T05:12:01.965Z,2.20
2023-01-03T05:14:49.315Z,2.40
2023-01-03T05:17:36.661Z,2.57
2023-01-03T05:20:43.266Z,2.33
2023-01-03T05:23:49.472Z,2.73
2023-01-03T05:26:38.080Z,2.90
2023-01-03T05:29:26.263Z,2.47
2023-01-03T05:32:13.701Z,2.63
2023-01-03T05:35:01.767Z,2.87
2023-01-03T05:37:49.105Z,2.90
2023-01-03T05:40:41.265Z,2.73
2023-01-03T05:43:29.055Z,2.67
2023-01-03T05:46:16.538Z,2.67
2023-01-03T05:49:04.038Z,2.90
2023-01-03T05:51:51.432Z,2.57
2023-01-03T05:54:38.929Z,2.80
2023-01-03T05:57:30.521Z,3.07
2023-01-03T06:00:22.496Z,3.60
2023-01-03T06:03:09.879Z,2.70
2023-01-03T06:06:02.482Z,2.70
2023-01-03T06:08:49.910Z,2.70
2023-01-03T06:11:37.284Z,2.90
2023-01-03T06:14:24.710Z,2.97
2023-01-03T06:17:30.732Z,2.90
2023-01-03T06:20:18.173Z,2.70
2023-01-03T06:23:05.539Z,3.00
2023-01-03T06:25:52.889Z,2.57
2023-01-03T06:28:40.243Z,3.03
2023-01-03T06:31:27.878Z,2.80
2023-01-03T06:34:15.373Z,2.60
2023-01-03T06:37:02.767Z,2.20
2023-01-03T06:39:50.090Z,2.97
2023-01-03T06:42:42.364Z,3.40
2023-01-03T06:45:48.920Z,2.70
2023-01-03T06:48:55.166Z,3.00
2023-01-03T06:52:03.089Z,2.97
2023-01-03T06:54:50.514Z,3.00
2023-01-03T06:57:37.843Z,3.10
2023-01-03T07:00:25.192Z,3.13
2023-01-03T07:03:12.709Z,4.30
2023-01-03T07:06:00.444Z,3.43
2023-01-03T07:08:48.561Z,3.37
2023-01-03T07:11:36.192Z,3.47
2023-01-03T07:14:23.583Z,3.47
2023-01-03T07:17:11.214Z,3.50
2023-01-03T07:19:58.581Z,3.57
2023-01-03T07:22:45.912Z,3.47
2023-01-03T07:25:33.339Z,3.57
2023-01-03T07:28:20.705Z,3.80
2023-01-03T07:31:08.269Z,3.17
2023-01-03T07:33:55.842Z,3.80
2023-01-03T07:36:43.201Z,3.60
2023-01-03T07:39:30.552Z,4.00
2023-01-03T07:42:36.573Z,4.00
2023-01-03T07:45:23.912Z,3.60
2023-01-03T07:48:11.837Z,4.00
2023-01-03T07:50:59.317Z,4.07
2023-01-03T07:53:47.493Z,3.93
2023-01-03T07:56:34.925Z,3.80
2023-01-03T07:59:22.408Z,4.77
2023-01-03T08:02:09.883Z,4.80
2023-01-03T08:04:57.535Z,3.83
2023-01-03T08:07:44.986Z,4.77
2023-01-03T08:10:51.272Z,4.40
2023-01-03T08:13:38.628Z,4.37
2023-01-03T08:16:26.093Z,4.80
2023-01-03T08:19:13.498Z,4.80
2023-01-03T08:22:00.818Z,4.87
2023-01-03T08:24:48.239Z,5.10
2023-01-03T08:27:35.590Z,4.90
2023-01-03T08:30:23.110Z,5.10
2023-01-03T08:33:11.753Z,5.07
2023-01-03T08:36:03.443Z,4.53
2023-01-03T08:38:56.400Z,4.60
2023-01-03T08:41:45.802Z,4.63
2023-01-03T08:44:33.498Z,5.03
2023-01-03T08:47:20.916Z,4.30
2023-01-03T08:50:09.440Z,4.47
2023-01-03T08:52:57.665Z,4.60
2023-01-03T08:55:45.064Z,4.13
2023-01-03T08:58:32.419Z,4.40
2023-01-03T09:01:20.996Z,4.33
2023-01-03T09:04:08.585Z,3.73
2023-01-03T09:06:56.555Z,3.80
2023-01-03T09:09:43.910Z,4.30
2023-01-03T09:12:31.262Z,3.90
2023-01-03T09:15:18.665Z,4.50
2023-01-03T09:18:07.422Z,4.10
2023-01-03T09:20:54.799Z,3.17
2023-01-03T09:23:42.201Z,3.27
2023-01-03T09:26:30.362Z,3.00
2023-01-03T09:29:17.715Z,2.83
2023-01-03T09:32:05.281Z,3.13
2023-01-03T09:34:52.713Z,3.27
2023-01-03T09:37:45.387Z,3.00
2023-01-03T09:40:40.307Z,3.10
2023-01-03T09:43:34.166Z,3.10
2023-01-03T09:46:25.762Z,3.77
2023-01-03T09:49:14.255Z,3.70
2023-01-03T09:52:20.538Z,3.40
2023-01-03T09:55:41.515Z,3.20
2023-01-03T09:58:47.759Z,3.53
2023-01-03T10:01:59.927Z,3.73
2023-01-03T10:04:47.536Z,3.50
2023-01-03T10:07:50.650Z,3.53
2023-01-03T10:10:52.114Z,3.60
2023-01-03T10:13:42.536Z,3.73
2023-01-03T10:16:50.348Z,3.37
2023-01-03T10:19:49.781Z,3.70
2023-01-03T10:22:38.007Z,4.00
2023-01-03T10:25:25.496Z,3.33
2023-01-03T10:28:23.441Z,3.40
2023-01-03T10:31:17.432Z,2.97
2023-01-03T10:34:06.115Z,2.80
2023-01-03T10:36:53.509Z,3.03
2023-01-03T10:39:43.835Z,3.10
2023-01-03T10:42:33.403Z,3.50
2023-01-03T10:45:21.489Z,3.17
2023-01-03T10:48:14.159Z,2.67
2023-01-03T10:51:03.949Z,3.43
2023-01-03T10:53:53.769Z,3.03
2023-01-03T10:56:41.121Z,3.00
2023-01-03T10:59:30.132Z,3.00
2023-01-03T11:02:19.176Z,3.43
2023-01-03T11:05:12.778Z,3.00
2023-01-03T11:08:02.720Z,2.60
2023-01-03T11:10:57.860Z,2.50
2023-01-03T11:13:47.639Z,2.40
2023-01-03T11:16:35.875Z,2.63
2023-01-03T11:19:26.663Z,3.00
2023-01-03T11:22:37.429Z,2.37
2023-01-03T11:25:25.228Z,2.83
2023-01-03T11:28:21.778Z,2.47
2023-01-03T11:31:12.034Z,2.73
2023-01-03T11:33:59.398Z,2.53
2023-01-03T11:36:49.944Z,2.30
2023-01-03T11:39:37.269Z,2.90
2023-01-03T11:42:30.637Z,2.30
2023-01-03T11:45:36.197Z,2.80
2023-01-03T11:48:49.652Z,2.70
2023-01-03T11:51:42.193Z,2.07
2023-01-03T11:54:29.731Z,2.20
2023-01-03T11:57:20.015Z,2.10
2023-01-03T12:00:11.674Z,2.47
2023-01-03T12:03:28.469Z,2.53
2023-01-03T12:06:29.099Z,1.90
2023-01-03T12:09:28.113Z,1.73
2023-01-03T12:12:21.358Z,2.00
2023-01-03T12:15:12.515Z,1.73
2023-01-03T12:18:07.131Z,2.13
2023-01-03T12:21:03.841Z,1.70
2023-01-03T12:23:56.735Z,1.60
2023-01-03T12:26:45.251Z,1.60
2023-01-03T12:29:43.975Z,2.23
2023-01-03T12:32:45.825Z,3.33
2023-01-03T12:35:44.212Z,1.67
2023-01-03T12:38:33.393Z,2.13
2023-01-03T12:41:39.423Z,1.70
2023-01-03T12:44:32.705Z,1.90
2023-01-03T12:47:29.705Z,1.77
2023-01-03T12:50:17.040Z,2.13
2023-01-03T12:53:10.956Z,2.07
2023-01-03T12:55:58.327Z,2.70
2023-01-03T12:58:56.337Z,2.10
2023-01-03T13:01:45.980Z,2.03
2023-01-03T13:04:35.569Z,1.90
2023-01-03T13:07:23.027Z,2.73
2023-01-03T13:10:14.871Z,2.17
2023-01-03T13:13:02.783Z,2.10
2023-01-03T13:15:50.425Z,2.07
2023-01-03T13:18:38.158Z,2.03
2023-01-03T13:21:45.966Z,1.87
2023-01-03T13:24:39.342Z,1.90
2023-01-03T13:27:50.113Z,1.97
2023-01-03T13:30:38.626Z,2.00
2023-01-03T13:33:26.319Z,1.50
2023-01-03T13:36:15.907Z,1.63
2023-01-03T13:39:23.606Z,1.60
2023-01-03T13:42:31.552Z,1.53
2023-01-03T13:45:31.427Z,1.57
2023-01-03T13:48:23.918Z,1.67
2023-01-03T13:51:11.671Z,1.80
2023-01-03T13:54:00.706Z,1.47
2023-01-03T13:56:49.910Z,1.60
2023-01-03T13:59:42.529Z,1.43
2023-01-03T14:02:45.070Z,1.87
2023-01-03T14:05:44.220Z,1.70
2023-01-03T14:08:40.938Z,1.73
2023-01-03T14:12:00.506Z,1.50
2023-01-03T14:14:53.622Z,1.93
2023-01-03T14:17:43.817Z,2.40
2023-01-03T14:20:33.274Z,2.00
2023-01-03T14:23:58.562Z,4.63
2023-01-03T14:26:33.484Z,4.22
2023-01-03T14:29:23.844Z,5.50
2023-01-03T14:32:37.313Z,4.07
2023-01-03T14:35:33.935Z,3.10
2023-01-03T14:38:26.795Z,4.83
2023-01-03T14:41:43.658Z,4.47
2023-01-03T14:44:31.768Z,4.73
2023-01-03T14:47:19.892Z,6.00
2023-01-03T14:50:09.151Z,9.27
2023-01-03T14:52:58.497Z,10.13
2023-01-03T14:55:53.626Z,9.03
2023-01-03T14:58:45.156Z,6.47
2023-01-03T15:01:33.356Z,4.73
2023-01-03T15:04:21.517Z,3.77
2023-01-03T15:07:22.218Z,3.93
2023-01-03T15:10:12.355Z,9.25
2023-01-03T15:13:04.592Z,7.33
2023-01-03T15:15:57.057Z,4.47
2023-01-03T15:18:45.312Z,3.37
2023-01-03T15:21:33.074Z,3.30
2023-01-03T15:24:21.963Z,3.80
2023-01-03T15:27:27.989Z,3.50
2023-01-03T15:30:15.982Z,3.57
2023-01-03T15:33:05.450Z,3.10
2023-01-03T15:35:55.806Z,4.30
2023-01-03T15:38:45.977Z,5.00
2023-01-03T15:42:19.645Z,6.23
2023-01-03T15:45:00.220Z,6.40
2023-01-03T15:47:49.305Z,8.70
2023-01-03T15:50:40.229Z,9.30
2023-01-03T15:53:34.306Z,9.43
2023-01-03T15:56:28.324Z,8.73
2023-01-03T15:59:21.310Z,7.43
2023-01-03T16:02:19.607Z,6.20
2023-01-03T16:05:08.447Z,6.27
2023-01-03T16:07:55.953Z,7.17
2023-01-03T16:10:43.325Z,6.73
2023-01-03T16:13:32.520Z,8.90
2023-01-03T16:16:23.868Z,9.83
2023-01-03T16:19:17.662Z,16.83
2023-01-03T16:25:16.821Z,12.87
2023-01-03T16:28:12.622Z,12.23
2023-01-03T16:31:22.402Z,9.80
2023-01-03T16:34:18.132Z,8.10
2023-01-03T16:37:05.775Z,7.00
2023-01-03T16:39:53.144Z,6.00
2023-01-03T16:42:40.509Z,6.97
2023-01-03T16:45:27.944Z,6.00
2023-01-03T16:48:20.712Z,7.90
2023-01-03T16:51:08.373Z,9.23
2023-01-03T16:53:56.522Z,7.07
2023-01-03T16:56:44.215Z,6.73
2023-01-03T16:59:32.200Z,7.60
2023-01-03T17:02:19.980Z,7.63
2023-01-03T17:05:07.700Z,6.17
2023-01-03T17:07:59.957Z,6.73
2023-01-03T17:10:48.531Z,6.83
2023-01-03T17:13:37.631Z,7.63
2023-01-03T17:16:25.340Z,7.07
2023-01-03T17:20:01.204Z,7.00
2023-01-03T17:22:27.502Z,7.27
2023-01-03T17:25:15.427Z,6.73
2023-01-03T17:28:02.850Z,7.67
2023-01-03T17:30:54.322Z,7.70
2023-01-03T17:33:42.464Z,8.00
2023-01-03T17:36:33.972Z,7.57
2023-01-03T17:39:21.712Z,8.53
2023-01-03T17:42:16.557Z,8.90
2023-01-03T17:45:22.778Z,8.87
2023-01-03T17:48:32.425Z,8.63
2023-01-03T17:51:19.852Z,8.93
2023-01-03T17:54:07.273Z,9.40
2023-01-03T17:56:55.433Z,14.07
2023-01-03T17:59:43.351Z,12.13
2023-01-03T18:02:32.039Z,10.77
2023-01-03T18:05:27.058Z,9.97
2023-01-03T18:08:18.171Z,11.50
2023-01-03T18:11:07.285Z,10.67
2023-01-03T18:13:54.744Z,11.57
2023-01-03T18:16:42.917Z,11.73
2023-01-03T18:19:30.302Z,12.07
2023-01-03T18:22:18.298Z,12.67
2023-01-03T18:25:05.877Z,12.07
2023-01-03T18:27:55.212Z,13.77
2023-01-03T18:30:42.616Z,14.23
2023-01-03T18:33:30.009Z,13.57
2023-01-03T18:36:28.789Z,14.73
2023-01-03T18:39:17.680Z,17.40
2023-01-03T18:42:23.819Z,13.63
2023-01-03T18:45:15.075Z,13.87
2023-01-03T18:48:02.769Z,12.13
2023-01-03T18:50:57.928Z,12.03
2023-01-03T18:53:47.878Z,13.17
2023-01-03T18:56:40.053Z,13.00
2023-01-03T18:59:27.865Z,14.63
2023-01-03T19:02:19.840Z,13.00
2023-01-03T19:05:07.489Z,13.03
2023-01-03T19:07:55.004Z,13.83
2023-01-03T19:10:42.422Z,13.83
2023-01-03T19:13:49.672Z,14.77
2023-01-03T19:16:38.260Z,15.00
2023-01-03T19:19:25.708Z,14.40
2023-01-03T19:22:26.019Z,15.60
2023-01-03T19:25:33.660Z,14.57
2023-01-03T19:28:23.269Z,14.53
2023-01-03T19:31:13.002Z,14.53
2023-01-03T19:34:00.569Z,15.77
2023-01-03T19:36:48.377Z,15.90
2023-01-03T19:39:37.816Z,16.07
2023-01-03T19:42:44.266Z,15.03
2023-01-03T19:45:36.289Z,14.53
2023-01-03T19:48:24.569Z,15.83
2023-01-03T19:51:12.834Z,16.20
2023-01-03T19:54:00.249Z,15.10
2023-01-03T19:56:47.885Z,16.43
2023-01-03T19:59:36.987Z,14.47
2023-01-03T20:02:27.807Z,15.23
2023-01-03T20:05:18.791Z,14.53
2023-01-03T20:08:12.057Z,15.13
2023-01-03T20:11:00.177Z,16.27
2023-01-03T20:13:47.687Z,15.27
2023-01-03T20:16:35.329Z,15.67
2023-01-03T20:19:23.802Z,17.87
2023-01-03T20:22:30.172Z,16.67
2023-01-03T20:25:24.706Z,17.00
2023-01-03T20:28:19.681Z,15.80
2023-01-03T20:31:07.946Z,15.93
2023-01-03T20:33:55.600Z,16.23
2023-01-03T20:36:44.935Z,16.47
2023-01-03T20:39:34.356Z,15.50
2023-01-03T20:42:22.839Z,15.57
2023-01-03T20:45:10.616Z,15.27
2023-01-03T20:47:57.741Z,15.20
2023-01-03T20:50:45.847Z,15.13
2023-01-03T20:53:32.939Z,15.70
2023-01-03T20:56:20.148Z,13.30
2023-01-03T20:59:07.476Z,15.77
2023-01-03T21:01:54.560Z,15.03
2023-01-03T21:04:41.908Z,14.63
2023-01-03T21:07:50.304Z,15.77
2023-01-03T21:10:43.163Z,13.97
2023-01-03T21:13:30.199Z,14.20
2023-01-03T21:16:29.061Z,14.30
2023-01-03T21:19:17.212Z,13.40
2023-01-03T21:22:13.730Z,13.27
2023-01-03T21:25:02.689Z,14.27
2023-01-03T21:27:50.293Z,12.80
2023-01-03T21:30:38.027Z,11.53
2023-01-03T21:33:25.490Z,14.37
2023-01-03T21:36:20.867Z,15.33
2023-01-03T21:39:10.899Z,13.60
2023-01-03T21:42:17.608Z,12.43
2023-01-03T21:45:10.362Z,14.23
2023-01-03T21:47:57.759Z,13.50
2023-01-03T21:50:46.821Z,13.40
2023-01-03T21:53:34.245Z,12.37
2023-01-03T21:56:23.610Z,12.97
2023-01-03T21:59:12.297Z,12.77
2023-01-03T22:02:18.167Z,12.93
2023-01-03T22:05:05.425Z,11.47
2023-01-03T22:07:52.678Z,11.97
2023-01-03T22:10:42.674Z,12.07
2023-01-03T22:13:30.429Z,13.33
2023-01-03T22:16:17.394Z,12.90
2023-01-03T22:19:04.499Z,13.60
2023-01-03T22:21:51.444Z,12.47
2023-01-03T22:24:38.444Z,12.50
2023-01-03T22:27:25.614Z,13.73
2023-01-03T22:30:15.169Z,12.87
2023-01-03T22:33:02.380Z,12.43
2023-01-03T22:35:49.443Z,12.50
2023-01-03T22:38:37.867Z,12.63
2023-01-03T22:41:24.864Z,12.00
2023-01-03T22:44:11.968Z,12.57
2023-01-03T22:46:59.177Z,10.77
2023-01-03T22:49:46.232Z,12.20
2023-01-03T22:52:36.259Z,10.57
2023-01-03T22:55:29.985Z,11.53
2023-01-03T22:58:19.491Z,9.97
2023-01-03T23:01:18.319Z,10.07
2023-01-03T23:04:09.038Z,10.07
2023-01-03T23:06:56.611Z,10.73
2023-01-03T23:09:44.594Z,10.00
2023-01-03T23:12:50.826Z,8.93
2023-01-03T23:15:38.564Z,9.23
2023-01-03T23:18:26.130Z,9.23
2023-01-03T23:21:13.678Z,8.20
2023-01-03T23:24:01.813Z,8.50
2023-01-03T23:26:50.039Z,7.63
2023-01-03T23:29:38.480Z,8.63
2023-01-03T23:32:25.886Z,8.37
2023-01-03T23:35:13.309Z,7.47
2023-01-03T23:38:01.310Z,6.60
2023-01-03T23:40:48.719Z,7.40
2023-01-03T23:43:36.346Z,6.20
2023-01-03T23:46:24.260Z,6.33
2023-01-03T23:49:13.248Z,6.77
2023-01-03T23:52:00.600Z,5.80
2023-01-03T23:54:47.961Z,5.80
2023-01-03T23:57:35.382Z,5.57
